Time;durP1;ratioP1;P1;durP2;ratioP2;P2;SDS_P1;SDS_P2;PMS_P1;PMS_P2;Temp;Humidity;BMP_temperature;BMP_pressure;BME280_temperature;BME280_humidity;BME280_pressure;Samples;Min_cycle;Max_cycle;Signal;HPM_P1;HPM_P2
2023/09/23 00:00:55;;;;;;;;;;;12.70;99.90;;;;;;4931054;29;20046;-86
2023/09/23 00:03:23;;;;;;;;;;;12.60;99.90;;;;;;4931740;28;19933;-85
2023/09/23 00:05:49;;;;;;;;;;;12.60;99.90;;;;;;4912910;29;19927;-85
2023/09/23 00:08:14;;;;;;;;;;;12.60;99.90;;;;;;4928899;29;19949;-86
2023/09/23 00:10:40;;;;;;;;;;;12.60;99.90;;;;;;4946368;28;19970;-85
2023/09/23 00:13:06;;;;;;;;;;;12.60;99.90;;;;;;4927444;29;19938;-86
2023/09/23 00:15:34;;;;;;;;;;;12.70;99.90;;;;;;4931069;29;19937;-86
2023/09/23 00:17:59;;;;;;;;;;;12.60;99.90;;;;;;4929096;29;20362;-85
2023/09/23 00:20:27;;;;;;;;;;;12.70;99.90;;;;;;4931346;29;20018;-85
2023/09/23 00:22:52;;;;;;;;;;;12.70;99.90;;;;;;4927662;29;20021;-86
2023/09/23 00:25:18;;;;;;;;;;;12.60;99.90;;;;;;4932588;29;20014;-86
2023/09/23 00:27:48;;;;;;;;;;;12.70;99.90;;;;;;4915351;29;19926;-85
2023/09/23 00:30:14;;;;;;;;;;;12.70;99.90;;;;;;4942734;29;20021;-87
2023/09/23 00:32:41;;;;;;;;;;;12.60;99.90;;;;;;4932602;29;19977;-87
2023/09/23 00:35:10;;;;;;;;;;;12.60;99.90;;;;;;4915639;29;19927;-86
2023/09/23 00:37:36;;;;;;;;;;;12.60;99.90;;;;;;4947330;28;19950;-85
2023/09/23 00:40:03;;;;;;;;;;;12.60;99.90;;;;;;4931369;29;20069;-86
2023/09/23 00:42:28;;;;;;;;;;;12.60;99.90;;;;;;4914178;29;19931;-86
2023/09/23 00:44:54;;;;;;;;;;;12.60;99.90;;;;;;4915204;29;19934;-86
2023/09/23 00:47:20;;;;;;;;;;;12.50;99.90;;;;;;4932614;29;19934;-83
2023/09/23 00:49:46;;;;;;;;;;;12.50;99.90;;;;;;4932079;29;20398;-86
2023/09/23 00:52:13;;;;;;;;;;;12.50;99.90;;;;;;4931808;29;20420;-86
2023/09/23 00:54:40;;;;;;;;;;;12.50;99.90;;;;;;4930268;29;19927;-84
2023/09/23 00:57:06;;;;;;;;;;;12.40;99.90;;;;;;4936909;29;19930;-84
2023/09/23 00:59:35;;;;;;;;;;;12.40;99.90;;;;;;4936282;29;19926;-85
2023/09/23 01:02:04;;;;;;;;;;;12.40;99.90;;;;;;4936203;29;19970;-84
2023/09/23 01:04:30;;;;;;;;;;;12.40;99.90;;;;;;4915224;29;20384;-84
2023/09/23 01:06:56;;;;;;;;;;;12.30;99.90;;;;;;4911558;29;19927;-85
2023/09/23 01:09:23;;;;;;;;;;;12.30;99.90;;;;;;4942301;29;20366;-84
2023/09/23 01:11:52;;;;;;;;;;;12.30;99.90;;;;;;4947927;28;20424;-86
2023/09/23 01:14:21;;;;;;;;;;;12.30;99.90;;;;;;4932154;29;19966;-84
2023/09/23 01:16:48;;;;;;;;;;;12.30;99.90;;;;;;4932826;28;19931;-84
2023/09/23 01:19:17;;;;;;;;;;;12.30;99.90;;;;;;4919025;29;19934;-85
2023/09/23 01:21:45;;;;;;;;;;;12.30;99.90;;;;;;4942868;28;20337;-85
2023/09/23 01:24:10;;;;;;;;;;;12.40;99.90;;;;;;4933958;29;19937;-86
2023/09/23 01:26:36;;;;;;;;;;;12.30;99.90;;;;;;4920222;29;20348;-85
2023/09/23 01:29:04;;;;;;;;;;;12.40;99.90;;;;;;4933620;29;19985;-84
2023/09/23 01:31:29;;;;;;;;;;;12.40;99.90;;;;;;4942998;29;20021;-85
2023/09/23 01:33:56;;;;;;;;;;;12.40;99.90;;;;;;4944584;28;20046;-85
2023/09/23 01:36:22;;;;;;;;;;;12.40;99.90;;;;;;4947497;28;19926;-84
2023/09/23 01:38:50;;;;;;;;;;;12.40;99.90;;;;;;4935040;29;19927;-85
2023/09/23 01:41:16;;;;;;;;;;;12.40;99.90;;;;;;4932916;29;19971;-85
2023/09/23 01:43:41;;;;;;;;;;;12.40;99.90;;;;;;4914973;29;19927;-84
2023/09/23 01:46:07;;;;;;;;;;;12.40;99.90;;;;;;4934081;29;19934;-83
2023/09/23 01:48:33;;;;;;;;;;;12.40;99.90;;;;;;4935807;29;19938;-84
2023/09/23 01:50:59;;;;;;;;;;;12.40;99.90;;;;;;4935123;29;20326;-85
2023/09/23 01:53:25;;;;;;;;;;;12.40;99.90;;;;;;4921324;29;19952;-85
2023/09/23 01:55:51;;;;;;;;;;;12.40;99.90;;;;;;4915894;29;19978;-84
2023/09/23 01:58:17;;;;;;;;;;;12.30;99.90;;;;;;4933097;29;20440;-84
2023/09/23 02:00:42;;;;;;;;;;;12.30;99.90;;;;;;4931142;29;19927;-85
2023/09/23 02:03:08;;;;;;;;;;;12.30;99.90;;;;;;4934159;29;19935;-84
2023/09/23 02:05:33;;;;;;;;;;;12.20;99.90;;;;;;4934022;29;19927;-85
2023/09/23 02:07:59;;;;;;;;;;;12.20;99.90;;;;;;4931659;29;19934;-85
2023/09/23 02:10:26;;;;;;;;;;;12.10;99.90;;;;;;4932856;29;19931;-85
2023/09/23 02:12:52;;;;;;;;;;;12.00;99.90;;;;;;4926877;28;19927;-85
2023/09/23 02:15:18;;;;;;;;;;;12.00;99.90;;;;;;4944900;29;19941;-84
2023/09/23 02:17:44;;;;;;;;;;;11.90;99.90;;;;;;4917890;29;19927;-83
2023/09/23 02:20:11;;;;;;;;;;;11.90;99.90;;;;;;4933157;29;19930;-84
2023/09/23 02:22:37;;;;;;;;;;;11.80;99.90;;;;;;4938365;29;19988;-84
2023/09/23 02:25:07;;;;;;;;;;;11.70;99.90;;;;;;4919004;29;19930;-84
2023/09/23 02:27:33;;;;;;;;;;;11.70;99.90;;;;;;4937601;29;19926;-84
2023/09/23 02:30:05;;;;;;;;;;;11.70;99.90;;;;;;4928677;29;19952;-84
2023/09/23 02:32:30;;;;;;;;;;;11.60;99.90;;;;;;4936182;29;20285;-85
2023/09/23 02:34:56;;;;;;;;;;;11.60;99.90;;;;;;4935415;29;19934;-83
2023/09/23 02:37:26;;;;;;;;;;;11.60;99.90;;;;;;4919027;29;20069;-84
2023/09/23 02:39:52;;;;;;;;;;;11.50;99.90;;;;;;4924394;29;19927;-85
2023/09/23 02:42:17;;;;;;;;;;;11.50;99.90;;;;;;4935291;29;20061;-83
2023/09/23 02:44:43;;;;;;;;;;;11.50;99.90;;;;;;4935073;29;20435;-82
2023/09/23 02:47:08;;;;;;;;;;;11.50;99.90;;;;;;4934127;29;19950;-84
2023/09/23 02:49:34;;;;;;;;;;;11.40;99.90;;;;;;4934298;29;19937;-85
2023/09/23 02:52:00;;;;;;;;;;;11.40;99.90;;;;;;4936297;29;19927;-84
2023/09/23 02:54:26;;;;;;;;;;;11.50;99.90;;;;;;4935471;28;19989;-84
2023/09/23 02:56:52;;;;;;;;;;;11.40;99.90;;;;;;4936121;29;20374;-84
2023/09/23 02:59:26;;;;;;;;;;;11.40;99.90;;;;;;4922631;29;19927;-84
2023/09/23 03:01:53;;;;;;;;;;;11.40;99.90;;;;;;4931261;29;20425;-84
2023/09/23 03:04:20;;;;;;;;;;;11.40;99.90;;;;;;4936541;29;19993;-85
2023/09/23 03:06:49;;;;;;;;;;;11.30;99.90;;;;;;4935627;29;19927;-83
2023/09/23 03:09:25;;;;;;;;;;;11.30;99.90;;;;;;4919635;29;20543;-83
2023/09/23 03:11:57;;;;;;;;;;;11.30;99.90;;;;;;4937210;29;19927;-85
2023/09/23 03:14:28;;;;;;;;;;;11.30;99.90;;;;;;4935705;29;19927;-84
2023/09/23 03:16:54;;;;;;;;;;;11.20;99.90;;;;;;4938122;29;19931;-83
2023/09/23 03:19:25;;;;;;;;;;;11.20;99.90;;;;;;4932406;28;19927;-83
2023/09/23 03:21:57;;;;;;;;;;;11.20;99.90;;;;;;4930249;29;19986;-83
2023/09/23 03:24:25;;;;;;;;;;;11.10;99.90;;;;;;4917073;29;19955;-82
2023/09/23 03:26:51;;;;;;;;;;;11.10;99.90;;;;;;4926271;29;20017;-85
2023/09/23 03:29:18;;;;;;;;;;;11.10;99.90;;;;;;4938027;28;19931;-83
2023/09/23 03:31:44;;;;;;;;;;;11.10;99.90;;;;;;4941113;29;19981;-85
2023/09/23 03:34:13;;;;;;;;;;;11.00;99.90;;;;;;4935468;29;19931;-84
2023/09/23 03:36:41;;;;;;;;;;;11.00;99.90;;;;;;4936084;29;19934;-84
2023/09/23 03:39:08;;;;;;;;;;;11.00;99.90;;;;;;4917162;29;19926;-84
2023/09/23 03:41:35;;;;;;;;;;;10.90;99.90;;;;;;4934904;29;19927;-83
2023/09/23 03:44:03;;;;;;;;;;;10.90;99.90;;;;;;4934493;29;19926;-85
2023/09/23 03:46:29;;;;;;;;;;;10.90;99.90;;;;;;4931953;29;19933;-84
2023/09/23 03:48:54;;;;;;;;;;;10.80;99.90;;;;;;4939026;28;19927;-84
2023/09/23 03:51:20;;;;;;;;;;;10.80;99.90;;;;;;4948678;28;19930;-86
2023/09/23 03:53:48;;;;;;;;;;;10.80;99.90;;;;;;4932953;29;19973;-84
2023/09/23 03:56:14;;;;;;;;;;;10.80;99.90;;;;;;4917838;29;19934;-83
2023/09/23 03:58:39;;;;;;;;;;;10.80;99.90;;;;;;4930894;29;19927;-86
2023/09/23 04:01:09;;;;;;;;;;;10.70;99.90;;;;;;4979812;28;19930;-83
2023/09/23 04:03:35;;;;;;;;;;;10.70;99.90;;;;;;4904028;28;20283;-84
2023/09/23 04:06:00;;;;;;;;;;;10.70;99.90;;;;;;4935014;29;19938;-83
2023/09/23 04:08:27;;;;;;;;;;;10.70;99.90;;;;;;4936419;28;20460;-84
2023/09/23 04:10:52;;;;;;;;;;;10.70;99.90;;;;;;4931510;29;19942;-83
2023/09/23 04:13:18;;;;;;;;;;;10.70;99.90;;;;;;4931482;28;19926;-83
2023/09/23 04:15:44;;;;;;;;;;;10.70;99.90;;;;;;4932887;29;19927;-83
2023/09/23 04:18:10;;;;;;;;;;;10.70;99.90;;;;;;4952437;28;19981;-83
2023/09/23 04:20:36;;;;;;;;;;;10.80;99.90;;;;;;4916907;29;20404;-83
2023/09/23 04:23:02;;;;;;;;;;;10.80;99.90;;;;;;4930391;29;19988;-84
2023/09/23 04:25:28;;;;;;;;;;;10.80;99.90;;;;;;4933131;29;20389;-84
2023/09/23 04:27:54;;;;;;;;;;;10.90;99.90;;;;;;4934511;29;19977;-84
2023/09/23 04:30:20;;;;;;;;;;;10.90;99.90;;;;;;4943604;28;20064;-83
2023/09/23 04:32:46;;;;;;;;;;;10.90;99.90;;;;;;4937443;29;20418;-84
2023/09/23 04:35:21;;;;;;;;;;;10.90;99.90;;;;;;4919779;29;20895;-83
2023/09/23 04:37:46;;;;;;;;;;;10.90;99.90;;;;;;4915044;28;20259;-83
2023/09/23 04:40:13;;;;;;;;;;;10.90;99.90;;;;;;4932978;29;19933;-83
2023/09/23 04:42:39;;;;;;;;;;;10.90;99.90;;;;;;4951528;28;19927;-83
2023/09/23 04:45:05;;;;;;;;;;;10.90;99.90;;;;;;4937677;29;19927;-86
2023/09/23 04:47:32;;;;;;;;;;;10.90;99.90;;;;;;4917276;29;19934;-85
2023/09/23 04:49:58;;;;;;;;;;;10.80;99.90;;;;;;4919893;29;20385;-84
2023/09/23 04:52:24;;;;;;;;;;;10.80;99.90;;;;;;4936861;28;20334;-85
2023/09/23 04:54:53;;;;;;;;;;;10.80;99.90;;;;;;4929774;29;20025;-84
2023/09/23 04:57:19;;;;;;;;;;;10.80;99.90;;;;;;4934206;28;19927;-83
2023/09/23 04:59:45;;;;;;;;;;;10.80;99.90;;;;;;4935467;29;19926;-83
2023/09/23 05:02:17;;;;;;;;;;;10.80;99.90;;;;;;4937217;29;19927;-83
2023/09/23 05:04:45;;;;;;;;;;;10.80;99.90;;;;;;4935048;29;19934;-82
2023/09/23 05:07:13;;;;;;;;;;;10.80;99.90;;;;;;4938012;28;19958;-85
2023/09/23 05:09:40;;;;;;;;;;;10.80;99.90;;;;;;4937167;29;19930;-84
2023/09/23 05:12:08;;;;;;;;;;;10.80;99.90;;;;;;4936167;29;19935;-83
2023/09/23 05:14:33;;;;;;;;;;;10.80;99.90;;;;;;4934439;29;19927;-83
2023/09/23 05:16:59;;;;;;;;;;;10.80;99.90;;;;;;4933992;28;19926;-85
2023/09/23 05:19:27;;;;;;;;;;;10.80;99.90;;;;;;4937393;29;19927;-85
2023/09/23 05:21:53;;;;;;;;;;;10.80;99.90;;;;;;4935519;29;20061;-83
2023/09/23 05:24:19;;;;;;;;;;;10.90;99.90;;;;;;4932374;29;19927;-84
2023/09/23 05:26:44;;;;;;;;;;;10.80;99.90;;;;;;4931548;28;20009;-85
2023/09/23 05:29:10;;;;;;;;;;;10.80;99.90;;;;;;4937790;29;19927;-83
2023/09/23 05:31:38;;;;;;;;;;;10.80;99.90;;;;;;4941176;29;19938;-84
2023/09/23 05:34:04;;;;;;;;;;;10.90;99.90;;;;;;4930970;29;19949;-83
2023/09/23 05:36:30;;;;;;;;;;;10.90;99.90;;;;;;4985706;28;20425;-83
2023/09/23 05:38:56;;;;;;;;;;;10.80;99.90;;;;;;4933469;29;19939;-85
2023/09/23 05:41:24;;;;;;;;;;;11.00;99.90;;;;;;4912448;28;19927;-84
2023/09/23 05:43:51;;;;;;;;;;;11.00;99.90;;;;;;4925799;29;19931;-86
2023/09/23 05:46:17;;;;;;;;;;;11.00;99.90;;;;;;4930633;29;19990;-85
2023/09/23 05:48:42;;;;;;;;;;;11.00;99.90;;;;;;4934061;28;19962;-84
2023/09/23 05:51:08;;;;;;;;;;;10.90;99.90;;;;;;4933637;29;19931;-85
2023/09/23 05:53:34;;;;;;;;;;;11.00;99.90;;;;;;4934024;29;19931;-84
2023/09/23 05:56:00;;;;;;;;;;;11.00;99.90;;;;;;4933336;29;20034;-83
2023/09/23 05:58:25;;;;;;;;;;;11.00;99.90;;;;;;4931162;28;19931;-85
2023/09/23 06:00:51;;;;;;;;;;;11.00;99.90;;;;;;4930139;29;19934;-84
2023/09/23 06:03:17;;;;;;;;;;;11.00;99.90;;;;;;4914989;29;20398;-84
2023/09/23 06:05:44;;;;;;;;;;;11.10;99.90;;;;;;4927264;29;19934;-84
2023/09/23 06:08:13;;;;;;;;;;;11.10;99.90;;;;;;4937371;28;19931;-84
2023/09/23 06:10:39;;;;;;;;;;;11.20;99.90;;;;;;4933464;29;19962;-87
2023/09/23 06:13:13;;;;;;;;;;;11.20;99.90;;;;;;4932404;29;20031;-83
2023/09/23 06:15:39;;;;;;;;;;;11.30;99.90;;;;;;4930875;29;19950;-83
2023/09/23 06:18:06;;;;;;;;;;;11.30;99.90;;;;;;4933753;29;19927;-85
2023/09/23 06:20:33;;;;;;;;;;;11.40;99.90;;;;;;4946668;29;19934;-83
2023/09/23 06:22:58;;;;;;;;;;;11.40;99.90;;;;;;4917472;29;19962;-84
2023/09/23 06:25:24;;;;;;;;;;;11.50;99.90;;;;;;4933110;28;19974;-84
2023/09/23 06:27:50;;;;;;;;;;;11.50;99.90;;;;;;4924880;28;20381;-85
2023/09/23 06:30:15;;;;;;;;;;;11.60;99.90;;;;;;4938441;29;20073;-83
2023/09/23 06:32:41;;;;;;;;;;;11.60;99.90;;;;;;4931158;29;19997;-85
2023/09/23 06:35:07;;;;;;;;;;;11.60;99.90;;;;;;4929705;28;20346;-84
2023/09/23 06:37:33;;;;;;;;;;;11.70;99.90;;;;;;4927803;29;19927;-84
2023/09/23 06:39:59;;;;;;;;;;;11.80;99.90;;;;;;4917031;29;20006;-87
2023/09/23 06:42:24;;;;;;;;;;;11.90;99.90;;;;;;4931718;29;19930;-86
2023/09/23 06:44:50;;;;;;;;;;;12.00;99.90;;;;;;4935219;28;19980;-85
2023/09/23 06:47:16;;;;;;;;;;;12.00;99.90;;;;;;4925211;29;19935;-83
2023/09/23 06:49:41;;;;;;;;;;;12.10;99.90;;;;;;4934101;29;20337;-83
2023/09/23 06:52:07;;;;;;;;;;;12.30;99.90;;;;;;4929228;29;19963;-83
2023/09/23 06:54:32;;;;;;;;;;;12.50;99.90;;;;;;4928800;29;19931;-84
2023/09/23 06:56:58;;;;;;;;;;;12.70;99.90;;;;;;4929417;28;19977;-84
2023/09/23 06:59:24;;;;;;;;;;;12.90;99.90;;;;;;4930789;29;19934;-84
2023/09/23 07:01:49;;;;;;;;;;;13.00;99.90;;;;;;4949159;28;20301;-85
2023/09/23 07:04:15;;;;;;;;;;;13.10;99.90;;;;;;4932133;29;19977;-85
2023/09/23 07:06:41;;;;;;;;;;;13.20;99.90;;;;;;4928114;29;19962;-84
2023/09/23 07:09:07;;;;;;;;;;;13.30;99.90;;;;;;4914086;29;20282;-84
2023/09/23 07:11:33;;;;;;;;;;;13.30;99.90;;;;;;4932701;28;19937;-84
2023/09/23 07:14:03;;;;;;;;;;;13.30;99.90;;;;;;4934869;28;19927;-88
2023/09/23 07:16:29;;;;;;;;;;;13.30;99.90;;;;;;4938648;29;20405;-85
2023/09/23 07:18:54;;;;;;;;;;;13.30;99.90;;;;;;4915501;29;19927;-84
2023/09/23 07:21:20;;;;;;;;;;;13.20;99.90;;;;;;4915391;29;19930;-84
2023/09/23 07:23:45;;;;;;;;;;;13.20;99.90;;;;;;4971888;28;19931;-84
2023/09/23 07:26:18;;;;;;;;;;;13.20;99.90;;;;;;4916535;29;20278;-85
2023/09/23 07:28:43;;;;;;;;;;;13.20;99.90;;;;;;4931103;29;19927;-87
2023/09/23 07:31:09;;;;;;;;;;;13.20;99.90;;;;;;4931823;29;19938;-84
2023/09/23 07:33:35;;;;;;;;;;;13.30;99.90;;;;;;4913430;29;19950;-86
2023/09/23 07:36:08;;;;;;;;;;;13.30;99.90;;;;;;4932592;29;19981;-85
2023/09/23 07:38:34;;;;;;;;;;;13.30;99.90;;;;;;4915487;29;20053;-88
2023/09/23 07:40:59;;;;;;;;;;;13.40;99.90;;;;;;4915225;29;20033;-84
2023/09/23 07:43:25;;;;;;;;;;;13.30;99.90;;;;;;4932925;28;19981;-87
2023/09/23 07:45:51;;;;;;;;;;;13.30;99.90;;;;;;4947862;28;19935;-86
2023/09/23 07:48:17;;;;;;;;;;;13.30;99.90;;;;;;4917106;29;19949;-86
2023/09/23 07:50:42;;;;;;;;;;;13.30;99.90;;;;;;4932923;29;20312;-87
2023/09/23 07:53:08;;;;;;;;;;;13.40;99.90;;;;;;4936410;29;19953;-86
2023/09/23 07:55:33;;;;;;;;;;;13.40;99.90;;;;;;4933131;29;19933;-86
2023/09/23 07:57:59;;;;;;;;;;;13.60;99.90;;;;;;4916781;29;20017;-85
2023/09/23 08:00:24;;;;;;;;;;;13.90;99.90;;;;;;4929426;28;19931;-84
2023/09/23 08:02:50;;;;;;;;;;;14.00;99.90;;;;;;4931238;29;19934;-85
2023/09/23 08:05:16;;;;;;;;;;;14.20;99.90;;;;;;4931509;29;20008;-85
2023/09/23 08:07:41;;;;;;;;;;;14.40;99.90;;;;;;4913390;29;19930;-84
2023/09/23 08:10:07;;;;;;;;;;;14.50;99.90;;;;;;4932954;29;21369;-85
2023/09/23 08:12:34;;;;;;;;;;;14.60;99.90;;;;;;4930706;29;19954;-84
2023/09/23 08:14:59;;;;;;;;;;;14.80;99.90;;;;;;4931548;28;19927;-85
2023/09/23 08:17:26;;;;;;;;;;;14.90;99.90;;;;;;4914543;29;20294;-85
2023/09/23 08:19:52;;;;;;;;;;;14.90;99.90;;;;;;4915917;29;19946;-85
2023/09/23 08:22:17;;;;;;;;;;;14.80;99.90;;;;;;4930508;29;20372;-85
2023/09/23 08:24:43;;;;;;;;;;;14.80;99.90;;;;;;4932794;29;20286;-84
2023/09/23 08:27:09;;;;;;;;;;;14.80;99.90;;;;;;4899394;29;19943;-85
2023/09/23 08:29:34;;;;;;;;;;;14.80;99.90;;;;;;4912803;29;19930;-85
2023/09/23 08:32:00;;;;;;;;;;;14.80;99.90;;;;;;4931211;29;19927;-84
2023/09/23 08:34:25;;;;;;;;;;;14.80;99.90;;;;;;4947344;28;19931;-85
2023/09/23 08:36:52;;;;;;;;;;;14.80;99.90;;;;;;4930471;29;19934;-86
2023/09/23 08:39:18;;;;;;;;;;;14.80;99.90;;;;;;4896130;29;19974;-86
2023/09/23 08:41:49;;;;;;;;;;;14.90;99.90;;;;;;4922882;29;19948;-85
2023/09/23 08:44:16;;;;;;;;;;;15.10;99.90;;;;;;4930697;29;19927;-86
2023/09/23 08:46:42;;;;;;;;;;;15.30;99.90;;;;;;4929577;29;19931;-84
2023/09/23 08:49:09;;;;;;;;;;;15.60;99.90;;;;;;4926699;28;20402;-84
2023/09/23 08:51:35;;;;;;;;;;;15.80;99.90;;;;;;4916511;29;19988;-84
2023/09/23 08:54:00;;;;;;;;;;;15.90;99.90;;;;;;4945585;28;19926;-84
2023/09/23 08:56:26;;;;;;;;;;;16.00;99.90;;;;;;4913922;29;19953;-86
2023/09/23 08:58:52;;;;;;;;;;;15.90;99.90;;;;;;4930859;28;19927;-84
2023/09/23 09:01:17;;;;;;;;;;;15.90;99.90;;;;;;4929893;28;19927;-86
2023/09/23 09:03:44;;;;;;;;;;;16.20;99.90;;;;;;4929623;29;19931;-85
2023/09/23 09:06:19;;;;;;;;;;;16.50;99.90;;;;;;4998018;28;19934;-85
2023/09/23 09:08:45;;;;;;;;;;;16.70;99.90;;;;;;4911076;29;19934;-84
2023/09/23 09:11:11;;;;;;;;;;;16.80;99.90;;;;;;4922389;29;19926;-84
2023/09/23 09:13:37;;;;;;;;;;;17.00;99.90;;;;;;4930883;29;19950;-83
2023/09/23 09:16:04;;;;;;;;;;;17.20;99.90;;;;;;4929860;29;19927;-83
2023/09/23 09:18:29;;;;;;;;;;;17.10;99.90;;;;;;4931558;29;20433;-84
2023/09/23 09:20:55;;;;;;;;;;;17.10;99.90;;;;;;4933024;29;19970;-83
2023/09/23 09:23:21;;;;;;;;;;;17.00;99.90;;;;;;4933742;28;19984;-86
2023/09/23 09:25:49;;;;;;;;;;;16.80;99.90;;;;;;4915224;28;20384;-86
2023/09/23 09:28:17;;;;;;;;;;;16.90;99.90;;;;;;4927190;28;19927;-83
2023/09/23 09:30:44;;;;;;;;;;;17.40;99.90;;;;;;4925838;29;19931;-84
2023/09/23 09:33:10;;;;;;;;;;;17.60;99.90;;;;;;4931548;29;19927;-84
2023/09/23 09:35:38;;;;;;;;;;;17.60;99.90;;;;;;4933712;29;19934;-84
2023/09/23 09:38:06;;;;;;;;;;;17.50;99.90;;;;;;4932857;29;20022;-83
2023/09/23 09:40:32;;;;;;;;;;;17.30;99.90;;;;;;4933444;29;20389;-84
2023/09/23 09:42:59;;;;;;;;;;;17.10;99.90;;;;;;4932738;29;19927;-83
2023/09/23 09:45:26;;;;;;;;;;;17.20;99.90;;;;;;4935081;28;19927;-85
2023/09/23 09:47:55;;;;;;;;;;;17.70;99.90;;;;;;4933353;29;19927;-84
2023/09/23 09:50:25;;;;;;;;;;;18.00;99.90;;;;;;4948688;28;19934;-89
2023/09/23 09:52:51;;;;;;;;;;;18.20;99.90;;;;;;4945414;28;20563;-84
2023/09/23 09:55:18;;;;;;;;;;;18.10;99.90;;;;;;4928261;29;19957;-83
2023/09/23 09:57:52;;;;;;;;;;;17.80;99.90;;;;;;4932110;29;20389;-84
2023/09/23 10:00:27;;;;;;;;;;;17.60;99.90;;;;;;4935195;28;19931;-85
2023/09/23 10:03:00;;;;;;;;;;;17.30;99.90;;;;;;4928833;29;19974;-84
2023/09/23 10:05:39;;;;;;;;;;;17.30;99.90;;;;;;4931050;28;20431;-84
2023/09/23 10:08:12;;;;;;;;;;;17.20;99.90;;;;;;4935561;28;19952;-87
2023/09/23 10:10:43;;;;;;;;;;;17.10;99.90;;;;;;4919870;29;19927;-85
2023/09/23 10:13:13;;;;;;;;;;;17.00;99.90;;;;;;4932592;29;19931;-85
2023/09/23 10:15:40;;;;;;;;;;;17.00;99.90;;;;;;4932072;29;19985;-85
2023/09/23 10:18:13;;;;;;;;;;;17.20;99.90;;;;;;4932819;29;19930;-87
2023/09/23 10:20:39;;;;;;;;;;;17.30;99.90;;;;;;4932418;29;19937;-87
2023/09/23 10:23:06;;;;;;;;;;;17.50;99.90;;;;;;4932482;29;19937;-86
2023/09/23 10:25:39;;;;;;;;;;;17.80;99.90;;;;;;4932485;29;20002;-87
2023/09/23 10:28:05;;;;;;;;;;;18.10;99.90;;;;;;4930384;29;19927;-88
2023/09/23 10:30:32;;;;;;;;;;;18.30;99.90;;;;;;4870103;29;1796383;-89
2023/09/23 10:32:58;;;;;;;;;;;18.40;99.90;;;;;;4933341;29;19927;-90
2023/09/23 10:35:23;;;;;;;;;;;18.50;99.90;;;;;;4934765;28;19933;-87
2023/09/23 10:37:49;;;;;;;;;;;18.40;99.90;;;;;;4927180;29;20010;-86
2023/09/23 10:40:17;;;;;;;;;;;18.30;99.90;;;;;;4932319;29;20021;-84
2023/09/23 10:42:44;;;;;;;;;;;18.20;99.90;;;;;;4932511;29;19927;-87
2023/09/23 10:45:11;;;;;;;;;;;18.20;99.90;;;;;;4947470;28;19927;-87
2023/09/23 10:47:36;;;;;;;;;;;18.10;99.90;;;;;;4931031;28;19982;-87
2023/09/23 10:50:05;;;;;;;;;;;18.00;99.90;;;;;;4932589;29;20373;-86
2023/09/23 10:52:30;;;;;;;;;;;17.90;99.90;;;;;;4948635;28;20267;-87
2023/09/23 10:54:57;;;;;;;;;;;17.80;99.90;;;;;;4932792;29;20021;-87
2023/09/23 10:57:23;;;;;;;;;;;17.90;99.90;;;;;;4933082;29;19930;-87
2023/09/23 10:59:50;;;;;;;;;;;18.00;99.90;;;;;;4933897;28;19938;-87
2023/09/23 11:02:15;;;;;;;;;;;18.10;99.90;;;;;;4932750;29;19927;-86
2023/09/23 11:04:45;;;;;;;;;;;18.10;99.90;;;;;;4948492;28;19927;-87
2023/09/23 11:07:10;;;;;;;;;;;18.10;99.90;;;;;;4931648;29;20461;-87
2023/09/23 11:09:36;;;;;;;;;;;18.30;99.90;;;;;;4932447;28;19938;-87
2023/09/23 11:12:12;;;;;;;;;;;18.50;99.90;;;;;;4916715;29;19935;-85
2023/09/23 11:14:41;;;;;;;;;;;18.50;99.90;;;;;;4933532;29;19926;-87
2023/09/23 11:17:06;;;;;;;;;;;18.60;99.90;;;;;;4931837;29;19978;-87
2023/09/23 11:19:32;;;;;;;;;;;18.50;99.90;;;;;;4915918;29;20428;-86
2023/09/23 11:21:58;;;;;;;;;;;18.50;99.90;;;;;;4929429;29;19958;-87
2023/09/23 11:24:24;;;;;;;;;;;18.60;99.90;;;;;;4930282;28;20421;-85
2023/09/23 11:26:50;;;;;;;;;;;18.80;99.90;;;;;;4932257;29;19926;-85
2023/09/23 11:29:15;;;;;;;;;;;18.90;99.90;;;;;;4933451;28;20322;-84
2023/09/23 11:31:41;;;;;;;;;;;19.00;99.90;;;;;;4932017;29;19931;-85
2023/09/23 11:34:07;;;;;;;;;;;19.00;99.90;;;;;;4929986;29;19934;-85
2023/09/23 11:36:33;;;;;;;;;;;19.00;99.90;;;;;;4930864;29;19933;-84
2023/09/23 11:38:59;;;;;;;;;;;19.10;99.90;;;;;;4930341;29;19927;-85
2023/09/23 11:41:24;;;;;;;;;;;19.10;99.90;;;;;;4937976;28;20492;-86
2023/09/23 11:43:50;;;;;;;;;;;19.10;99.90;;;;;;4936412;28;19927;-85
2023/09/23 11:46:19;;;;;;;;;;;19.20;99.90;;;;;;4931583;29;20020;-86
2023/09/23 11:48:48;;;;;;;;;;;19.20;99.90;;;;;;4933619;28;20398;-84
2023/09/23 11:51:15;;;;;;;;;;;19.20;99.90;;;;;;4931347;29;20037;-83
2023/09/23 11:53:41;;;;;;;;;;;19.10;99.90;;;;;;4930883;29;20293;-85
2023/09/23 11:56:06;;;;;;;;;;;19.10;99.90;;;;;;4915802;29;19930;-84
2023/09/23 11:58:32;;;;;;;;;;;19.00;99.90;;;;;;4930221;29;19934;-87
2023/09/23 12:00:58;;;;;;;;;;;19.00;99.90;;;;;;4927364;29;19934;-86
2023/09/23 12:03:25;;;;;;;;;;;19.10;99.90;;;;;;4932813;29;19933;-88
2023/09/23 12:05:51;;;;;;;;;;;19.30;99.90;;;;;;4930859;29;19931;-85
2023/09/23 12:08:16;;;;;;;;;;;19.50;99.90;;;;;;4932417;29;19933;-87
2023/09/23 12:10:42;;;;;;;;;;;19.60;99.90;;;;;;4931874;29;19977;-86
2023/09/23 12:13:08;;;;;;;;;;;19.60;99.90;;;;;;4932909;29;19942;-87
2023/09/23 12:15:36;;;;;;;;;;;19.50;99.90;;;;;;4931608;29;20385;-85
2023/09/23 12:18:02;;;;;;;;;;;19.30;99.90;;;;;;4930287;29;19938;-87
2023/09/23 12:20:28;;;;;;;;;;;19.20;99.90;;;;;;4932586;29;19931;-85
2023/09/23 12:22:54;;;;;;;;;;;19.20;99.90;;;;;;4915867;29;19985;-87
2023/09/23 12:25:20;;;;;;;;;;;19.30;99.90;;;;;;4932928;29;19927;-87
2023/09/23 12:27:46;;;;;;;;;;;19.40;99.90;;;;;;4947626;28;20382;-86
2023/09/23 12:30:16;;;;;;;;;;;19.40;99.90;;;;;;4931607;29;19980;-87
2023/09/23 12:32:42;;;;;;;;;;;19.40;99.90;;;;;;4918853;29;19934;-87
2023/09/23 12:35:09;;;;;;;;;;;19.20;99.90;;;;;;4932519;29;20294;-86
2023/09/23 12:37:35;;;;;;;;;;;19.20;99.90;;;;;;4932216;29;19973;-84
2023/09/23 12:40:00;;;;;;;;;;;19.20;99.90;;;;;;4931258;29;20286;-86
2023/09/23 12:42:26;;;;;;;;;;;19.00;99.90;;;;;;4927849;29;19934;-86
2023/09/23 12:44:51;;;;;;;;;;;18.80;99.90;;;;;;4929694;29;20347;-86
2023/09/23 12:47:17;;;;;;;;;;;18.60;99.90;;;;;;4928889;29;20034;-86
2023/09/23 12:49:43;;;;;;;;;;;18.40;99.90;;;;;;4930406;28;19931;-85
2023/09/23 12:52:10;;;;;;;;;;;18.20;99.90;;;;;;4929703;29;19930;-85
2023/09/23 12:54:36;;;;;;;;;;;17.90;99.90;;;;;;4931962;29;19926;-86
2023/09/23 12:57:01;;;;;;;;;;;17.70;99.90;;;;;;4934343;28;20013;-84
2023/09/23 12:59:27;;;;;;;;;;;17.40;99.90;;;;;;4943679;28;19939;-84
2023/09/23 13:01:52;;;;;;;;;;;17.30;99.90;;;;;;4933163;29;19938;-86
2023/09/23 13:04:18;;;;;;;;;;;17.30;99.90;;;;;;4933952;28;20017;-86
2023/09/23 13:06:43;;;;;;;;;;;17.40;99.90;;;;;;4931384;29;19953;-87
2023/09/23 13:09:09;;;;;;;;;;;17.60;99.90;;;;;;4917397;29;20434;-87
2023/09/23 13:11:35;;;;;;;;;;;17.60;99.90;;;;;;4934973;29;19981;-86
2023/09/23 13:14:00;;;;;;;;;;;17.60;99.90;;;;;;4934669;29;20392;-86
2023/09/23 13:16:26;;;;;;;;;;;17.60;99.90;;;;;;4934217;29;19931;-87
2023/09/23 13:18:52;;;;;;;;;;;17.60;99.90;;;;;;4931895;29;20302;-87
2023/09/23 13:21:18;;;;;;;;;;;17.60;99.90;;;;;;4926546;29;19981;-86
2023/09/23 13:23:44;;;;;;;;;;;17.60;99.90;;;;;;4934498;29;19931;-87
2023/09/23 13:26:09;;;;;;;;;;;17.60;99.90;;;;;;4934374;29;19992;-88
2023/09/23 13:28:39;;;;;;;;;;;17.70;99.90;;;;;;4949824;28;19950;-86
2023/09/23 13:31:05;;;;;;;;;;;17.70;99.90;;;;;;4950228;28;19938;-87
2023/09/23 13:33:31;;;;;;;;;;;17.80;99.90;;;;;;4934226;29;19926;-86
2023/09/23 13:35:56;;;;;;;;;;;17.70;99.90;;;;;;4948970;28;19930;-86
2023/09/23 13:38:22;;;;;;;;;;;17.50;99.90;;;;;;4950140;28;20013;-86
2023/09/23 13:40:47;;;;;;;;;;;17.50;99.90;;;;;;4917645;29;19927;-85
2023/09/23 13:43:13;;;;;;;;;;;17.50;99.90;;;;;;4934021;29;19927;-86
2023/09/23 13:45:39;;;;;;;;;;;17.50;99.90;;;;;;4939079;28;20408;-86
2023/09/23 13:48:07;;;;;;;;;;;17.50;99.90;;;;;;4931381;29;20009;-84
2023/09/23 13:50:34;;;;;;;;;;;17.50;99.90;;;;;;4936704;29;20298;-85
2023/09/23 13:53:00;;;;;;;;;;;17.50;99.90;;;;;;4925550;28;20013;-86
2023/09/23 13:55:26;;;;;;;;;;;17.60;99.90;;;;;;4928139;29;19931;-85
2023/09/23 13:57:51;;;;;;;;;;;17.80;99.90;;;;;;4927888;28;19934;-85
2023/09/23 14:00:17;;;;;;;;;;;17.90;99.90;;;;;;4931633;28;19927;-86
2023/09/23 14:02:43;;;;;;;;;;;18.00;99.90;;;;;;4932869;29;19985;-84
2023/09/23 14:05:10;;;;;;;;;;;18.00;99.90;;;;;;4924661;29;20017;-86
2023/09/23 14:07:36;;;;;;;;;;;18.00;99.90;;;;;;4926671;29;19927;-86
2023/09/23 14:10:03;;;;;;;;;;;18.00;99.90;;;;;;4927625;28;19942;-86
2023/09/23 14:12:29;;;;;;;;;;;18.00;99.90;;;;;;4925641;29;19931;-86